createdAt,value
2023-07-04T00:01:10.987Z,32.60
2023-07-04T00:03:40.341Z,31.65
2023-07-04T00:06:09.311Z,32.03
2023-07-04T00:08:36.151Z,31.52
2023-07-04T00:11:07.608Z,31.85
2023-07-04T00:13:36.721Z,33.37
2023-07-04T00:16:07.929Z,31.35
2023-07-04T00:18:37.674Z,32.58
2023-07-04T00:21:06.167Z,32.72
2023-07-04T00:23:35.738Z,33.38
2023-07-04T00:26:07.395Z,32.90
2023-07-04T00:28:35.492Z,31.65
2023-07-04T00:31:04.148Z,33.40
2023-07-04T00:33:34.715Z,31.52
2023-07-04T00:36:06.662Z,31.25
2023-07-04T00:38:34.716Z,31.23
2023-07-04T00:41:07.501Z,33.75
2023-07-04T00:44:02.925Z,31.50
2023-07-04T00:46:41.472Z,33.15
2023-07-04T00:49:24.338Z,31.98
2023-07-04T00:52:05.389Z,31.43
2023-07-04T00:54:46.369Z,31.30
2023-07-04T00:57:14.889Z,32.22
2023-07-04T00:59:45.786Z,31.65
2023-07-04T01:02:20.903Z,31.88
2023-07-04T01:04:50.377Z,30.02
2023-07-04T01:07:33.166Z,30.30
2023-07-04T01:10:27.809Z,33.30
2023-07-04T01:12:55.347Z,31.08
2023-07-04T01:15:24.685Z,31.17
2023-07-04T01:17:54.863Z,33.53
2023-07-04T01:20:21.904Z,33.47
2023-07-04T01:23:00.795Z,32.20
2023-07-04T01:25:42.693Z,31.10
2023-07-04T01:28:10.143Z,29.52
2023-07-04T01:30:40.080Z,29.70
2023-07-04T01:33:09.611Z,30.90
2023-07-04T01:35:37.524Z,30.90
2023-07-04T01:38:07.079Z,32.47
2023-07-04T01:40:35.599Z,30.55
2023-07-04T01:43:03.774Z,31.70
2023-07-04T01:45:31.012Z,33.17
2023-07-04T01:47:57.961Z,30.98
2023-07-04T01:50:24.988Z,33.65
2023-07-04T01:52:51.825Z,30.20
2023-07-04T01:55:20.090Z,30.50
2023-07-04T01:57:47.681Z,32.15
2023-07-04T02:04:42.551Z,31.45
2023-07-04T02:07:09.717Z,32.13
2023-07-04T02:09:36.517Z,31.10
2023-07-04T02:12:03.342Z,29.48
2023-07-04T02:14:30.079Z,30.48
2023-07-04T02:16:56.971Z,27.92
2023-07-04T02:19:23.830Z,31.40
2023-07-04T02:21:50.742Z,31.08
2023-07-04T02:24:17.635Z,32.67
2023-07-04T02:26:44.430Z,29.83
2023-07-04T02:29:11.222Z,29.63
2023-07-04T02:31:38.076Z,30.40
2023-07-04T02:34:04.861Z,31.17
2023-07-04T02:36:33.489Z,29.35
2023-07-04T02:39:00.395Z,29.45
2023-07-04T02:41:27.392Z,29.17
2023-07-04T02:43:55.038Z,30.95
2023-07-04T02:46:21.871Z,29.95
2023-07-04T02:48:53.109Z,31.33
2023-07-04T02:51:20.010Z,31.15
2023-07-04T02:53:47.661Z,29.48
2023-07-04T02:56:14.471Z,32.90
2023-07-04T02:58:41.580Z,30.58
2023-07-04T03:01:08.740Z,30.58
2023-07-04T03:03:36.527Z,28.85
2023-07-04T03:06:06.158Z,30.25
2023-07-04T03:08:34.760Z,29.77
2023-07-04T03:11:03.145Z,29.02
2023-07-04T03:13:34.960Z,32.63
2023-07-04T03:16:02.450Z,29.90
2023-07-04T03:18:29.481Z,30.83
2023-07-04T03:20:56.747Z,30.00
2023-07-04T03:23:23.604Z,29.35
2023-07-04T03:25:50.873Z,30.42
2023-07-04T03:28:18.827Z,29.25
2023-07-04T03:30:46.564Z,29.45
2023-07-04T03:33:14.530Z,31.50
2023-07-04T03:35:57.171Z,31.73
2023-07-04T03:38:25.666Z,30.60
2023-07-04T03:40:52.882Z,31.00
2023-07-04T03:43:20.193Z,32.42
2023-07-04T03:45:49.890Z,28.95
2023-07-04T03:48:16.859Z,33.70
2023-07-04T03:50:45.613Z,29.60
2023-07-04T03:53:12.441Z,29.40
2023-07-04T03:55:39.310Z,27.52
2023-07-04T03:58:06.747Z,30.27
2023-07-04T04:00:33.875Z,29.17
2023-07-04T04:03:01.015Z,30.27
2023-07-04T04:05:29.531Z,29.50
2023-07-04T04:07:56.376Z,30.38
2023-07-04T04:10:23.426Z,32.25
2023-07-04T04:12:50.226Z,29.42
2023-07-04T04:15:17.146Z,30.75
2023-07-04T04:17:44.018Z,29.88
2023-07-04T04:20:13.710Z,31.90
2023-07-04T04:22:46.286Z,29.13
2023-07-04T04:27:42.084Z,31.90
2023-07-04T04:30:12.026Z,31.27
2023-07-04T04:32:39.992Z,29.65
2023-07-04T04:35:09.533Z,31.23
2023-07-04T04:37:36.926Z,30.80
2023-07-04T04:40:07.969Z,32.00
2023-07-04T04:42:36.359Z,32.50
2023-07-04T04:45:05.250Z,31.10
2023-07-04T04:47:34.697Z,31.05
2023-07-04T04:50:03.556Z,31.02
2023-07-04T04:52:32.368Z,31.90
2023-07-04T04:55:02.706Z,30.45
2023-07-04T04:57:30.474Z,31.52
2023-07-04T05:00:00.779Z,30.75
2023-07-04T05:02:31.702Z,30.45
2023-07-04T05:05:01.942Z,30.63
2023-07-04T05:07:30.142Z,30.58
2023-07-04T05:09:59.445Z,29.70
2023-07-04T05:12:26.549Z,29.48
2023-07-04T05:14:53.419Z,29.38
2023-07-04T05:17:20.290Z,31.02
2023-07-04T05:19:51.434Z,31.40
2023-07-04T05:22:19.495Z,32.20
2023-07-04T05:24:47.410Z,30.80
2023-07-04T05:27:15.595Z,30.15
2023-07-04T05:29:42.368Z,30.17
2023-07-04T05:32:09.587Z,31.05
2023-07-04T05:34:36.523Z,31.33
2023-07-04T05:37:04.716Z,30.85
2023-07-04T05:39:31.563Z,32.58
2023-07-04T05:41:58.373Z,32.83
2023-07-04T05:44:25.344Z,31.42
2023-07-04T05:46:54.956Z,31.98
2023-07-04T05:49:21.914Z,31.80
2023-07-04T05:51:49.150Z,31.88
2023-07-04T05:54:16.104Z,29.48
2023-07-04T05:56:43.046Z,33.17
2023-07-04T05:59:11.096Z,32.28
2023-07-04T06:01:44.646Z,32.58
2023-07-04T06:04:13.148Z,30.40
2023-07-04T06:06:43.401Z,30.33
2023-07-04T06:09:14.496Z,31.13
2023-07-04T06:11:47.126Z,32.17
2023-07-04T06:14:25.787Z,32.10
2023-07-04T06:16:53.251Z,31.45
2023-07-04T06:19:22.789Z,32.53
2023-07-04T06:21:49.630Z,33.03
2023-07-04T06:24:17.679Z,33.88
2023-07-04T06:26:45.718Z,49.33
2023-07-04T06:29:12.608Z,32.78
2023-07-04T06:31:44.176Z,30.85
2023-07-04T06:34:12.975Z,36.78
2023-07-04T06:36:40.227Z,38.10
2023-07-04T06:39:07.505Z,32.25
2023-07-04T06:41:34.328Z,29.17
2023-07-04T06:44:01.243Z,29.83
2023-07-04T06:46:28.037Z,31.90
2023-07-04T06:48:54.832Z,32.25
2023-07-04T06:51:22.258Z,30.75
2023-07-04T06:53:49.366Z,30.73
2023-07-04T06:56:22.360Z,29.63
2023-07-04T06:58:56.425Z,42.55
2023-07-04T07:01:28.670Z,31.40
2023-07-04T07:03:57.261Z,30.30
2023-07-04T07:06:26.401Z,30.00
2023-07-04T07:08:53.920Z,31.30
2023-07-04T07:11:22.544Z,29.02
2023-07-04T07:13:50.998Z,32.20
2023-07-04T07:16:24.601Z,31.00
2023-07-04T07:18:53.819Z,32.28
2023-07-04T07:21:24.295Z,34.17
2023-07-04T07:23:56.643Z,34.13
2023-07-04T07:26:26.847Z,34.97
2023-07-04T07:28:55.487Z,30.42
2023-07-04T07:31:32.875Z,29.42
2023-07-04T07:34:01.507Z,30.73
2023-07-04T07:36:39.188Z,31.13
2023-07-04T07:39:09.864Z,30.88
2023-07-04T07:41:41.204Z,29.30
2023-07-04T07:44:09.458Z,32.30
2023-07-04T07:46:36.685Z,31.65
2023-07-04T07:49:04.414Z,30.13
2023-07-04T07:51:31.294Z,31.38
2023-07-04T07:53:59.983Z,29.13
2023-07-04T07:56:32.266Z,30.23
2023-07-04T07:58:59.279Z,33.33
2023-07-04T08:01:30.433Z,31.35
2023-07-04T08:03:58.558Z,31.30
2023-07-04T08:06:49.081Z,33.88
2023-07-04T08:09:18.530Z,32.40
2023-07-04T08:11:52.418Z,32.08
2023-07-04T08:14:20.275Z,31.27
2023-07-04T08:16:55.121Z,29.83
2023-07-04T08:19:25.149Z,32.70
2023-07-04T08:21:54.270Z,32.75
2023-07-04T08:24:21.101Z,29.20
2023-07-04T08:26:48.646Z,31.25
2023-07-04T08:29:16.018Z,32.83
2023-07-04T08:31:43.072Z,31.52
2023-07-04T08:34:13.376Z,29.52
2023-07-04T08:36:45.472Z,32.55
2023-07-04T08:39:12.725Z,32.13
2023-07-04T08:41:58.253Z,30.67
2023-07-04T08:44:36.080Z,29.50
2023-07-04T08:47:03.451Z,33.63
2023-07-04T08:49:39.622Z,30.15
2023-07-04T08:52:15.378Z,27.98
2023-07-04T08:54:42.347Z,28.30
2023-07-04T08:57:41.204Z,31.55
2023-07-04T09:00:15.228Z,33.70
2023-07-04T09:03:09.803Z,31.17
2023-07-04T09:06:21.106Z,32.80
2023-07-04T09:09:21.919Z,30.83
2023-07-04T09:11:50.131Z,35.17
2023-07-04T09:14:33.668Z,32.20
2023-07-04T09:17:05.188Z,31.45
2023-07-04T09:19:36.914Z,30.85
2023-07-04T09:24:34.341Z,30.63
2023-07-04T09:27:03.512Z,29.95
2023-07-04T09:29:31.785Z,30.65
2023-07-04T09:32:02.388Z,31.33
2023-07-04T09:34:34.305Z,31.38
2023-07-04T09:37:10.102Z,30.02
2023-07-04T09:39:56.876Z,31.10
2023-07-04T09:42:47.111Z,30.83
2023-07-04T09:45:22.767Z,29.75
2023-07-04T09:47:49.919Z,30.95
2023-07-04T09:50:22.812Z,30.88
2023-07-04T09:53:03.604Z,29.33
2023-07-04T09:55:30.629Z,30.30
2023-07-04T09:58:24.447Z,28.17
2023-07-04T10:01:22.535Z,28.48
2023-07-04T10:03:50.521Z,28.85
2023-07-04T10:06:37.905Z,27.98
2023-07-04T10:09:19.373Z,27.92
2023-07-04T10:11:48.766Z,26.48
2023-07-04T10:14:17.212Z,28.95
2023-07-04T10:16:52.008Z,28.55
2023-07-04T10:19:24.340Z,28.40
2023-07-04T10:21:53.759Z,27.30
2023-07-04T10:24:27.429Z,26.63
2023-07-04T10:27:09.465Z,27.23
2023-07-04T10:29:40.306Z,29.63
2023-07-04T10:32:14.514Z,28.53
2023-07-04T10:34:44.325Z,27.90
2023-07-04T10:37:22.758Z,26.20
2023-07-04T10:39:56.027Z,27.98
2023-07-04T10:42:32.446Z,29.15
2023-07-04T10:45:00.404Z,27.98
2023-07-04T10:47:32.880Z,28.90
2023-07-04T10:50:06.812Z,27.95
2023-07-04T10:52:37.733Z,27.65
2023-07-04T10:55:05.476Z,26.03
2023-07-04T10:57:38.173Z,36.60
2023-07-04T11:00:25.441Z,28.55
2023-07-04T11:02:57.285Z,30.45
2023-07-04T11:05:33.776Z,31.48
2023-07-04T11:08:01.239Z,29.67
2023-07-04T11:10:29.390Z,32.80
2023-07-04T11:12:58.011Z,28.90
2023-07-04T11:15:57.294Z,29.75
2023-07-04T11:18:33.229Z,30.52
2023-07-04T11:21:17.517Z,29.73
2023-07-04T11:23:55.016Z,31.42
2023-07-04T11:26:50.616Z,29.20
2023-07-04T11:29:21.780Z,32.40
2023-07-04T11:32:03.897Z,30.55
2023-07-04T11:34:55.103Z,30.25
2023-07-04T11:37:29.463Z,29.88
2023-07-04T11:39:58.475Z,30.45
2023-07-04T11:42:56.527Z,29.88
2023-07-04T11:45:23.949Z,30.63
2023-07-04T11:48:05.816Z,28.40
2023-07-04T11:50:45.175Z,29.27
2023-07-04T11:53:26.010Z,30.60
2023-07-04T11:56:27.671Z,30.20
2023-07-04T11:59:12.623Z,30.25
2023-07-04T12:02:28.511Z,28.95
2023-07-04T12:04:55.935Z,30.52
2023-07-04T12:07:47.573Z,28.85
2023-07-04T12:10:20.530Z,28.77
2023-07-04T12:12:57.384Z,30.25
2023-07-04T12:15:31.092Z,31.00
2023-07-04T12:18:00.760Z,30.20
2023-07-04T12:20:29.845Z,30.02
2023-07-04T12:23:02.193Z,26.20
2023-07-04T12:25:36.070Z,29.90
2023-07-04T12:28:05.040Z,31.17
2023-07-04T12:33:05.407Z,28.80
2023-07-04T12:35:39.645Z,29.58
2023-07-04T12:38:08.330Z,31.00
2023-07-04T12:40:35.515Z,30.13
2023-07-04T12:45:34.493Z,28.42
2023-07-04T12:50:36.091Z,32.72
2023-07-04T12:53:04.139Z,31.33
2023-07-04T12:55:36.860Z,29.85
2023-07-04T12:58:06.796Z,31.73
2023-07-04T13:00:38.627Z,30.05
2023-07-04T13:03:11.752Z,29.90
2023-07-04T13:05:45.256Z,28.00
2023-07-04T13:08:16.142Z,30.42
2023-07-04T13:10:43.853Z,29.85
2023-07-04T13:13:32.728Z,32.75
2023-07-04T13:16:29.853Z,30.50
2023-07-04T13:19:17.584Z,30.00
2023-07-04T13:21:48.937Z,31.60
2023-07-04T13:27:12.340Z,32.72
2023-07-04T13:35:37.060Z,28.48
2023-07-04T13:45:41.175Z,29.48
2023-07-04T13:48:08.345Z,30.27
2023-07-04T13:50:35.876Z,29.52
2023-07-04T13:53:14.954Z,29.25
2023-07-04T13:55:43.731Z,30.53
2023-07-04T13:58:11.005Z,29.08
2023-07-04T14:01:58.978Z,29.60
2023-07-04T14:05:58.818Z,28.48
2023-07-04T14:08:31.795Z,28.48
2023-07-04T14:11:12.858Z,29.20
2023-07-04T14:13:40.625Z,30.45
2023-07-04T14:21:13.636Z,29.45
2023-07-04T14:23:40.823Z,28.38
2023-07-04T14:26:22.518Z,26.83
2023-07-04T14:28:53.566Z,29.13
2023-07-04T14:31:20.814Z,31.53
2023-07-04T14:33:51.189Z,29.42
2023-07-04T14:36:18.442Z,27.98
2023-07-04T14:38:45.478Z,29.83
2023-07-04T14:43:45.668Z,27.58
2023-07-04T14:46:12.623Z,29.47
2023-07-04T14:48:40.816Z,27.65
2023-07-04T14:51:14.036Z,29.40
2023-07-04T14:53:43.177Z,29.52
2023-07-04T14:56:13.376Z,30.00
2023-07-04T14:58:40.863Z,28.75
2023-07-04T15:01:08.615Z,29.98
2023-07-04T15:03:36.269Z,27.60
2023-07-04T15:06:07.657Z,27.30
2023-07-04T15:08:36.892Z,28.02
2023-07-04T15:11:05.108Z,27.63
2023-07-04T15:13:32.989Z,29.80
2023-07-04T15:16:05.882Z,26.73
2023-07-04T15:18:38.333Z,30.08
2023-07-04T15:21:07.786Z,29.75
2023-07-04T15:23:35.309Z,31.02
2023-07-04T15:26:20.310Z,27.92
2023-07-04T15:28:50.224Z,28.35
2023-07-04T15:31:17.354Z,28.85
2023-07-04T15:33:44.482Z,28.60
2023-07-04T15:36:11.763Z,28.13
2023-07-04T15:38:38.942Z,29.45
2023-07-04T15:41:08.348Z,29.67
2023-07-04T15:43:37.376Z,30.00
2023-07-04T15:46:08.592Z,30.98
2023-07-04T15:48:36.352Z,30.67
2023-07-04T15:51:04.912Z,29.73
2023-07-04T15:53:32.454Z,30.45
2023-07-04T15:56:01.379Z,30.50
2023-07-04T15:58:29.015Z,30.00
2023-07-04T16:00:58.040Z,29.58
2023-07-04T16:03:26.098Z,29.00
2023-07-04T16:05:57.750Z,29.65
2023-07-04T16:08:26.959Z,28.75
2023-07-04T16:11:02.330Z,30.10
2023-07-04T16:13:29.495Z,34.72
2023-07-04T16:15:56.751Z,29.40
2023-07-04T16:18:24.371Z,29.83
2023-07-04T16:20:55.295Z,31.55
2023-07-04T16:23:22.437Z,34.45
2023-07-04T16:25:49.188Z,31.90
2023-07-04T16:28:16.310Z,33.05
2023-07-04T16:30:44.502Z,29.95
2023-07-04T16:33:13.091Z,31.60
2023-07-04T16:35:42.293Z,26.02
2023-07-04T16:38:10.291Z,25.40
2023-07-04T16:40:39.040Z,26.90
2023-07-04T16:43:05.894Z,28.98
2023-07-04T16:45:32.740Z,31.27
2023-07-04T16:48:03.377Z,29.35
2023-07-04T16:50:32.656Z,32.47
2023-07-04T16:53:01.312Z,31.92
2023-07-04T16:55:29.873Z,31.20
2023-07-04T16:57:56.740Z,30.67
2023-07-04T17:00:26.193Z,31.42
2023-07-04T17:02:54.023Z,36.65
2023-07-04T17:05:21.091Z,35.95
2023-07-04T17:07:48.235Z,31.27
2023-07-04T17:10:15.240Z,35.22
2023-07-04T17:12:42.499Z,33.00
2023-07-04T17:15:13.455Z,33.80
2023-07-04T17:17:40.646Z,32.50
2023-07-04T17:20:09.240Z,30.05
2023-07-04T17:22:36.698Z,31.02
2023-07-04T17:25:13.593Z,32.38
2023-07-04T17:27:42.184Z,29.55
2023-07-04T17:30:10.770Z,32.78
2023-07-04T17:32:38.669Z,30.30
2023-07-04T17:35:07.479Z,28.88
2023-07-04T17:37:34.697Z,30.50
2023-07-04T17:40:01.795Z,29.67
2023-07-04T17:42:31.972Z,34.25
2023-07-04T17:45:00.135Z,33.03
2023-07-04T17:47:30.669Z,34.25
2023-07-04T17:49:59.569Z,31.58
2023-07-04T17:52:29.951Z,35.15
2023-07-04T17:54:58.913Z,31.13
2023-07-04T17:57:28.629Z,33.03
2023-07-04T17:59:56.576Z,30.85
2023-07-04T18:02:23.806Z,36.75
2023-07-04T18:04:55.469Z,32.58
2023-07-04T18:07:24.649Z,34.85
2023-07-04T18:09:56.379Z,36.72
2023-07-04T18:12:28.380Z,36.42
2023-07-04T18:14:55.969Z,33.33
2023-07-04T18:17:23.071Z,33.55
2023-07-04T18:19:57.056Z,34.90
2023-07-04T18:22:26.346Z,37.25
2023-07-04T18:24:54.778Z,34.45
2023-07-04T18:27:24.861Z,38.75
2023-07-04T18:29:53.312Z,31.20
2023-07-04T18:32:21.226Z,35.78
2023-07-04T18:34:48.419Z,41.30
2023-07-04T18:37:15.925Z,30.88
2023-07-04T18:39:42.922Z,32.15
2023-07-04T18:42:09.930Z,31.80
2023-07-04T18:44:36.974Z,32.65
2023-07-04T18:47:04.262Z,37.15
2023-07-04T18:49:31.350Z,30.23
2023-07-04T18:51:59.643Z,32.72
2023-07-04T18:54:29.774Z,32.80
2023-07-04T18:56:57.179Z,35.58
2023-07-04T18:59:25.644Z,34.65
2023-07-04T19:01:55.256Z,33.17
2023-07-04T19:04:22.511Z,34.90
2023-07-04T19:06:51.088Z,32.50
2023-07-04T19:09:18.720Z,37.13
2023-07-04T19:11:46.556Z,30.92
2023-07-04T19:14:20.054Z,34.70
2023-07-04T19:16:56.276Z,33.13
2023-07-04T19:19:36.321Z,34.35
2023-07-04T19:22:06.903Z,32.17
2023-07-04T19:24:36.385Z,32.53
2023-07-04T19:27:04.127Z,32.25
2023-07-04T19:29:31.523Z,37.05
2023-07-04T19:32:01.375Z,36.72
2023-07-04T19:34:30.753Z,38.72
2023-07-04T19:36:58.608Z,37.05
2023-07-04T19:39:27.756Z,33.80
2023-07-04T19:41:55.126Z,39.85
2023-07-04T19:44:22.228Z,36.80
2023-07-04T19:46:49.256Z,40.67
2023-07-04T19:49:16.501Z,36.67
2023-07-04T19:51:43.737Z,38.20
2023-07-04T19:54:10.919Z,33.53
2023-07-04T19:56:38.021Z,35.45
2023-07-04T19:59:05.875Z,33.05
2023-07-04T20:01:35.736Z,37.58
2023-07-04T20:04:04.292Z,35.38
2023-07-04T20:06:33.533Z,39.45
2023-07-04T20:09:00.633Z,39.20
2023-07-04T20:11:27.585Z,42.60
2023-07-04T20:13:54.567Z,39.53
2023-07-04T20:16:39.769Z,45.33
2023-07-04T20:19:08.579Z,38.72
2023-07-04T20:21:37.662Z,41.65
2023-07-04T20:24:05.967Z,38.25
2023-07-04T20:26:32.919Z,41.47
2023-07-04T20:28:59.961Z,39.33
2023-07-04T20:31:27.125Z,38.80
2023-07-04T20:33:54.059Z,43.75
2023-07-04T20:36:20.973Z,40.13
2023-07-04T20:38:49.394Z,39.58
2023-07-04T20:41:16.656Z,43.83
2023-07-04T20:43:43.570Z,36.80
2023-07-04T20:46:13.204Z,38.17
2023-07-04T20:48:42.947Z,38.85
2023-07-04T20:51:13.592Z,38.55
2023-07-04T20:53:41.122Z,39.10
2023-07-04T20:56:09.613Z,41.58
2023-07-04T20:58:36.766Z,36.53
2023-07-04T21:01:04.089Z,37.65
2023-07-04T21:03:31.493Z,39.60
2023-07-04T21:06:03.588Z,37.35
2023-07-04T21:08:30.501Z,38.90
2023-07-04T21:11:06.730Z,37.92
2023-07-04T21:13:37.221Z,40.33
2023-07-04T21:16:11.573Z,36.78
2023-07-04T21:18:39.257Z,38.38
2023-07-04T21:21:06.809Z,38.25
2023-07-04T21:23:38.167Z,39.75
2023-07-04T21:26:08.613Z,38.50
2023-07-04T21:28:36.508Z,38.17
2023-07-04T21:31:10.130Z,39.20
2023-07-04T21:33:39.836Z,38.47
2023-07-04T21:36:07.654Z,39.35
2023-07-04T21:38:37.148Z,35.92
2023-07-04T21:41:05.418Z,40.15
2023-07-04T21:43:32.742Z,42.95
2023-07-04T21:46:00.529Z,41.83
2023-07-04T21:48:28.700Z,41.60
2023-07-04T21:50:57.473Z,38.60
2023-07-04T21:53:30.080Z,39.42
2023-07-04T21:56:05.196Z,36.65
2023-07-04T21:58:33.360Z,39.00
2023-07-04T22:01:05.380Z,39.05
2023-07-04T22:03:35.452Z,38.92
2023-07-04T22:06:10.502Z,37.83
2023-07-04T22:08:39.355Z,36.38
2023-07-04T22:11:09.214Z,38.50
2023-07-04T22:13:36.484Z,36.60
2023-07-04T22:16:08.328Z,34.53
2023-07-04T22:18:36.248Z,36.47
2023-07-04T22:21:06.196Z,38.65
2023-07-04T22:23:33.497Z,39.88
2023-07-04T22:26:00.702Z,39.42
2023-07-04T22:28:28.687Z,37.63
2023-07-04T22:31:02.038Z,37.38
2023-07-04T22:33:31.823Z,38.03
2023-07-04T22:36:00.139Z,40.47
2023-07-04T22:38:26.973Z,36.45
2023-07-04T22:40:53.923Z,38.60
2023-07-04T22:43:21.295Z,44.50
2023-07-04T22:45:54.651Z,37.17
2023-07-04T22:48:21.742Z,38.08
2023-07-04T22:50:48.845Z,36.60
2023-07-04T22:53:15.806Z,36.03
2023-07-04T22:55:45.025Z,36.80
2023-07-04T22:58:13.205Z,37.03
2023-07-04T23:00:45.095Z,39.30
2023-07-04T23:05:44.531Z,38.85
2023-07-04T23:08:13.494Z,38.38
2023-07-04T23:10:40.484Z,37.33
2023-07-04T23:13:07.317Z,33.88
2023-07-04T23:15:34.264Z,36.65
2023-07-04T23:18:01.317Z,37.45
2023-07-04T23:20:28.310Z,38.75
2023-07-04T23:22:55.207Z,36.20
2023-07-04T23:25:22.134Z,36.28
2023-07-04T23:27:49.071Z,33.85
2023-07-04T23:30:16.012Z,36.55
2023-07-04T23:32:43.307Z,33.92
2023-07-04T23:35:10.608Z,35.00
2023-07-04T23:37:37.791Z,35.72
2023-07-04T23:40:06.570Z,36.05
2023-07-04T23:42:34.885Z,39.88
2023-07-04T23:45:01.984Z,34.47
2023-07-04T23:47:29.078Z,41.03
2023-07-04T23:49:56.028Z,35.10
2023-07-04T23:52:22.947Z,35.20
2023-07-04T23:54:49.988Z,28.67
2023-07-04T23:57:16.999Z,30.88
2023-07-04T23:59:44.708Z,29.88
